createdAt,value
2018-05-02T00:01:21.340Z,99.90
2018-05-02T00:03:49.566Z,99.90
2018-05-02T00:06:17.014Z,99.90
2018-05-02T00:08:44.471Z,99.90
2018-05-02T00:11:11.919Z,99.90
2018-05-02T00:13:40.062Z,99.90
2018-05-02T00:16:08.288Z,99.90
2018-05-02T00:18:35.734Z,99.90
2018-05-02T00:21:03.177Z,99.90
2018-05-02T00:23:30.628Z,99.90
2018-05-02T00:25:58.070Z,99.90
2018-05-02T00:28:25.534Z,99.90
2018-05-02T00:30:52.970Z,99.90
2018-05-02T00:33:21.191Z,99.90
2018-05-02T00:35:48.636Z,99.90
2018-05-02T00:38:16.090Z,99.90
2018-05-02T00:40:43.527Z,99.90
2018-05-02T00:43:11.746Z,99.90
2018-05-02T00:45:39.198Z,99.90
2018-05-02T00:48:06.651Z,99.90
2018-05-02T00:50:34.094Z,99.90
2018-05-02T00:53:02.249Z,99.90
2018-05-02T00:55:29.711Z,99.90
2018-05-02T00:57:57.153Z,99.90
2018-05-02T01:00:24.606Z,99.90
2018-05-02T01:02:52.810Z,99.90
2018-05-02T01:05:20.266Z,99.90
2018-05-02T01:07:47.714Z,99.90
2018-05-02T01:10:15.162Z,99.90
2018-05-02T01:12:42.612Z,99.90
2018-05-02T01:15:10.822Z,99.90
2018-05-02T01:17:38.276Z,99.90
2018-05-02T01:20:05.710Z,99.90
2018-05-02T01:22:33.173Z,99.90
2018-05-02T01:25:00.613Z,99.90
2018-05-02T01:27:28.078Z,99.90
2018-05-02T01:29:55.559Z,99.90
2018-05-02T01:32:22.986Z,99.90
2018-05-02T01:34:51.203Z,99.90
2018-05-02T01:37:18.642Z,99.90
2018-05-02T01:39:46.247Z,99.90
2018-05-02T01:42:13.694Z,99.90
2018-05-02T01:44:41.154Z,99.90
2018-05-02T01:47:08.596Z,99.90
2018-05-02T01:49:36.062Z,99.90
2018-05-02T01:52:03.500Z,99.90
2018-05-02T01:54:30.941Z,99.90
2018-05-02T01:56:58.381Z,99.90
2018-05-02T01:59:25.834Z,99.90
2018-05-02T02:01:54.030Z,99.90
2018-05-02T02:04:22.210Z,99.90
2018-05-02T02:06:49.662Z,99.90
2018-05-02T02:09:17.909Z,99.90
2018-05-02T02:11:46.123Z,99.90
2018-05-02T02:14:13.567Z,99.90
2018-05-02T02:16:41.012Z,99.90
2018-05-02T02:19:08.454Z,99.90
2018-05-02T02:21:36.662Z,99.90
2018-05-02T02:24:04.112Z,99.90
2018-05-02T02:26:31.546Z,99.90
2018-05-02T02:28:59.000Z,99.90
2018-05-02T02:31:27.223Z,99.90
2018-05-02T02:33:54.795Z,99.90
2018-05-02T02:36:22.117Z,99.90
2018-05-02T02:38:49.562Z,99.90
2018-05-02T02:41:17.006Z,99.90
2018-05-02T02:43:44.457Z,99.90
2018-05-02T02:46:12.658Z,99.90
2018-05-02T02:48:40.120Z,99.90
2018-05-02T02:51:07.554Z,99.90
2018-05-02T02:53:34.995Z,99.90
2018-05-02T02:56:03.238Z,99.90
2018-05-02T02:58:30.690Z,99.90
2018-05-02T03:00:58.163Z,99.90
2018-05-02T03:03:25.603Z,99.90
2018-05-02T03:05:53.054Z,99.90
2018-05-02T03:08:20.510Z,99.90
2018-05-02T03:10:47.955Z,99.90
2018-05-02T03:13:15.403Z,99.90
2018-05-02T03:15:42.850Z,99.90
2018-05-02T03:18:10.319Z,99.90
2018-05-02T03:20:37.776Z,99.90
2018-05-02T03:23:05.230Z,99.90
2018-05-02T03:25:32.667Z,99.90
2018-05-02T03:28:00.114Z,99.90
2018-05-02T03:30:28.317Z,99.90
2018-05-02T03:32:56.204Z,99.90
2018-05-02T03:35:23.640Z,99.90
2018-05-02T03:37:51.103Z,99.90
2018-05-02T03:40:18.554Z,99.90
2018-05-02T03:42:46.002Z,99.90
2018-05-02T03:45:13.441Z,99.90
2018-05-02T03:47:41.646Z,99.90
2018-05-02T03:50:09.100Z,99.90
2018-05-02T03:52:36.546Z,99.90
2018-05-02T03:55:03.994Z,99.90
2018-05-02T03:57:31.435Z,99.90
2018-05-02T04:00:11.363Z,99.90
2018-05-02T04:02:50.594Z,99.90
2018-05-02T04:05:29.962Z,99.90
2018-05-02T04:07:58.165Z,99.90
2018-05-02T04:10:25.618Z,99.90
2018-05-02T04:12:53.051Z,99.90
2018-05-02T04:15:21.261Z,99.90
2018-05-02T04:17:48.706Z,99.90
2018-05-02T04:20:16.157Z,99.90
2018-05-02T04:22:43.617Z,99.90
2018-05-02T04:25:11.359Z,99.90
2018-05-02T04:27:39.569Z,99.90
2018-05-02T04:30:07.009Z,99.90
2018-05-02T04:32:34.454Z,99.90
2018-05-02T04:35:01.899Z,99.90
2018-05-02T04:37:30.126Z,99.90
2018-05-02T04:39:57.593Z,99.90
2018-05-02T04:42:25.043Z,99.90
2018-05-02T04:44:52.485Z,99.90
2018-05-02T04:47:19.936Z,99.90
2018-05-02T04:49:47.384Z,99.90
2018-05-02T04:52:14.834Z,99.90
2018-05-02T04:54:42.279Z,99.90
2018-05-02T04:57:10.490Z,99.90
2018-05-02T04:59:37.948Z,99.90
2018-05-02T05:02:05.374Z,99.90
2018-05-02T05:04:32.846Z,99.90
2018-05-02T05:07:00.271Z,99.90
2018-05-02T05:09:28.490Z,99.90
2018-05-02T05:11:55.938Z,99.90
2018-05-02T05:14:23.391Z,99.90
2018-05-02T05:16:50.838Z,99.90
2018-05-02T05:19:18.306Z,99.90
2018-05-02T05:21:45.738Z,99.90
2018-05-02T05:24:13.942Z,99.90
2018-05-02T05:26:41.397Z,99.90
2018-05-02T05:29:08.847Z,99.90
2018-05-02T05:31:36.960Z,99.90
2018-05-02T05:34:04.430Z,99.90
2018-05-02T05:36:31.904Z,99.90
2018-05-02T05:39:00.122Z,99.90
2018-05-02T05:41:27.574Z,99.90
2018-05-02T05:43:55.844Z,99.90
2018-05-02T05:46:23.282Z,99.90
2018-05-02T05:48:50.735Z,99.90
2018-05-02T05:51:18.941Z,99.90
2018-05-02T05:53:46.374Z,99.90
2018-05-02T05:56:13.835Z,99.90
2018-05-02T05:58:41.298Z,99.90
2018-05-02T06:01:08.751Z,99.90
2018-05-02T06:03:36.199Z,99.90
2018-05-02T06:06:03.650Z,99.90
2018-05-02T06:08:31.850Z,99.90
2018-05-02T06:10:59.304Z,99.90
2018-05-02T06:13:26.743Z,99.90
2018-05-02T06:15:54.510Z,99.90
2018-05-02T06:18:21.947Z,99.90
2018-05-02T06:20:50.180Z,99.90
2018-05-02T06:23:17.627Z,99.90
2018-05-02T06:25:45.071Z,99.90
2018-05-02T06:28:12.538Z,99.90
2018-05-02T06:30:39.987Z,99.90
2018-05-02T06:33:07.442Z,99.90
2018-05-02T06:35:34.882Z,99.90
2018-05-02T06:38:02.388Z,99.90
2018-05-02T06:40:29.829Z,99.90
2018-05-02T06:42:57.274Z,99.90
2018-05-02T06:45:24.739Z,99.90
2018-05-02T06:47:52.183Z,99.90
2018-05-02T06:50:20.260Z,99.90
2018-05-02T06:52:47.636Z,99.90
2018-05-02T06:55:15.090Z,99.90
2018-05-02T06:57:42.543Z,99.90
2018-05-02T07:00:10.338Z,99.90
2018-05-02T07:02:37.786Z,99.90
2018-05-02T07:05:05.243Z,99.90
2018-05-02T07:07:32.711Z,99.90
2018-05-02T07:10:00.148Z,99.90
2018-05-02T07:12:27.598Z,99.90
2018-05-02T07:14:55.056Z,99.90
2018-05-02T07:17:22.499Z,99.90
2018-05-02T07:19:49.944Z,99.90
2018-05-02T07:22:17.387Z,99.90
2018-05-02T07:24:44.858Z,99.90
2018-05-02T07:27:12.305Z,99.90
2018-05-02T07:29:39.779Z,99.90
2018-05-02T07:32:07.214Z,99.90
2018-05-02T07:34:34.665Z,99.90
2018-05-02T07:37:02.119Z,99.90
2018-05-02T07:39:31.118Z,99.90
2018-05-02T07:41:58.570Z,99.90
2018-05-02T07:44:26.782Z,99.90
2018-05-02T07:46:54.238Z,99.90
2018-05-02T07:49:21.682Z,99.90
2018-05-02T07:51:49.141Z,99.90
2018-05-02T07:54:16.596Z,97.50
2018-05-02T07:56:44.093Z,98.20
2018-05-02T07:59:11.510Z,98.20
2018-05-02T08:01:38.959Z,99.90
2018-05-02T08:04:06.423Z,99.90
2018-05-02T08:06:33.962Z,97.00
2018-05-02T08:09:01.422Z,96.20
2018-05-02T08:11:28.879Z,97.80
2018-05-02T08:13:56.743Z,99.20
2018-05-02T08:16:24.229Z,97.70
2018-05-02T08:18:52.411Z,96.20
2018-05-02T08:21:19.857Z,96.20
2018-05-02T08:23:47.324Z,95.70
2018-05-02T08:26:14.776Z,99.00
2018-05-02T08:28:42.220Z,93.10
2018-05-02T08:31:09.657Z,93.20
2018-05-02T08:33:37.613Z,91.70
2018-05-02T08:36:05.047Z,93.50
2018-05-02T08:38:32.504Z,91.10
2018-05-02T08:40:59.946Z,91.70
2018-05-02T08:43:27.405Z,91.70
2018-05-02T08:45:54.849Z,88.60
2018-05-02T08:48:23.297Z,86.10
2018-05-02T08:50:50.726Z,85.80
2018-05-02T08:53:18.953Z,86.80
2018-05-02T08:55:46.403Z,86.60
2018-05-02T08:58:13.848Z,89.10
2018-05-02T09:00:41.301Z,85.10
2018-05-02T09:03:08.751Z,82.80
2018-05-02T09:05:36.215Z,83.00
2018-05-02T09:08:04.522Z,83.40
2018-05-02T09:10:32.009Z,85.50
2018-05-02T09:12:59.470Z,79.70
2018-05-02T09:15:26.934Z,85.80
2018-05-02T09:17:55.152Z,83.70
2018-05-02T09:20:22.717Z,83.00
2018-05-02T09:22:50.151Z,77.10
2018-05-02T09:25:17.594Z,74.40
2018-05-02T09:27:45.805Z,73.20
2018-05-02T09:30:14.123Z,73.00
2018-05-02T09:32:42.011Z,73.90
2018-05-02T09:35:10.214Z,70.90
2018-05-02T09:37:37.674Z,70.70
2018-05-02T09:40:05.115Z,70.10
2018-05-02T09:42:32.581Z,69.30
2018-05-02T09:45:00.046Z,68.50
2018-05-02T09:47:27.503Z,68.20
2018-05-02T09:49:54.955Z,71.40
2018-05-02T09:52:22.394Z,70.20
2018-05-02T09:54:49.848Z,72.60
2018-05-02T09:57:17.310Z,71.50
2018-05-02T09:59:44.754Z,69.80
2018-05-02T10:02:12.984Z,71.00
2018-05-02T10:04:40.462Z,71.00
2018-05-02T10:07:08.818Z,70.10
2018-05-02T10:09:36.278Z,69.90
2018-05-02T10:12:04.658Z,69.40
2018-05-02T10:14:32.120Z,74.10
2018-05-02T10:16:59.800Z,68.80
2018-05-02T10:19:27.258Z,67.40
2018-05-02T10:21:54.691Z,66.50
2018-05-02T10:24:22.135Z,65.90
2018-05-02T10:26:49.591Z,69.80
2018-05-02T10:29:17.571Z,69.00
2018-05-02T10:31:45.022Z,67.50
2018-05-02T10:34:12.479Z,69.40
2018-05-02T10:36:40.689Z,67.90
2018-05-02T10:39:09.022Z,69.70
2018-05-02T10:41:36.466Z,69.80
2018-05-02T10:44:03.915Z,68.20
2018-05-02T10:46:31.366Z,66.70
2018-05-02T10:48:58.814Z,65.10
2018-05-02T10:51:26.347Z,66.40
2018-05-02T10:53:53.861Z,64.20
2018-05-02T10:56:21.386Z,64.90
2018-05-02T10:58:49.665Z,64.10
2018-05-02T11:01:17.177Z,63.90
2018-05-02T11:03:44.707Z,59.90
2018-05-02T11:06:12.225Z,60.30
2018-05-02T11:08:40.529Z,61.20
2018-05-02T11:11:08.048Z,61.10
2018-05-02T11:13:35.580Z,62.50
2018-05-02T11:16:04.219Z,59.90
2018-05-02T11:18:32.502Z,59.10
2018-05-02T11:21:00.018Z,59.00
2018-05-02T11:23:27.527Z,58.60
2018-05-02T11:25:55.046Z,56.90
2018-05-02T11:28:22.676Z,56.80
2018-05-02T11:30:50.126Z,56.90
2018-05-02T11:33:17.918Z,56.10
2018-05-02T11:35:45.440Z,55.40
2018-05-02T11:38:12.953Z,54.40
2018-05-02T11:40:41.273Z,54.20
2018-05-02T11:43:08.793Z,54.10
2018-05-02T11:45:37.069Z,55.70
2018-05-02T11:48:05.367Z,55.90
2018-05-02T11:50:32.881Z,55.80
2018-05-02T11:53:00.409Z,54.60
2018-05-02T11:55:27.922Z,53.50
2018-05-02T11:57:56.251Z,53.70
2018-05-02T12:00:23.741Z,53.70
2018-05-02T12:02:51.260Z,54.30
2018-05-02T12:05:18.777Z,53.20
2018-05-02T12:07:47.053Z,54.80
2018-05-02T12:10:15.337Z,53.50
2018-05-02T12:12:43.625Z,55.70
2018-05-02T12:15:11.150Z,55.70
2018-05-02T12:17:38.666Z,53.40
2018-05-02T12:20:06.186Z,55.00
2018-05-02T12:22:34.466Z,55.70
2018-05-02T12:25:03.628Z,55.20
2018-05-02T12:27:31.145Z,55.20
2018-05-02T12:29:58.677Z,56.70
2018-05-02T12:32:26.949Z,56.40
2018-05-02T12:34:55.234Z,57.00
2018-05-02T12:37:22.757Z,56.50
2018-05-02T12:39:50.289Z,53.70
2018-05-02T12:42:17.810Z,54.40
2018-05-02T12:44:45.329Z,55.10
2018-05-02T12:47:12.862Z,56.00
2018-05-02T12:49:40.376Z,55.30
2018-05-02T12:52:08.657Z,54.60
2018-05-02T12:54:36.945Z,52.90
2018-05-02T12:57:04.865Z,53.00
2018-05-02T12:59:32.381Z,52.10
2018-05-02T13:01:59.889Z,53.60
2018-05-02T13:04:27.413Z,53.70
2018-05-02T13:06:54.934Z,52.80
2018-05-02T13:09:23.215Z,53.60
2018-05-02T13:11:51.490Z,52.70
2018-05-02T13:14:19.785Z,52.70
2018-05-02T13:16:47.289Z,52.70
2018-05-02T13:19:14.809Z,52.60
2018-05-02T13:21:42.332Z,52.50
2018-05-02T13:24:10.613Z,55.10
2018-05-02T13:26:38.894Z,55.20
2018-05-02T13:29:07.179Z,52.90
2018-05-02T13:31:34.705Z,52.90
2018-05-02T13:34:02.238Z,52.60
2018-05-02T13:36:29.776Z,52.40
2018-05-02T13:38:57.296Z,53.90
2018-05-02T13:41:25.570Z,56.10
2018-05-02T13:43:53.871Z,55.50
2018-05-02T13:46:21.385Z,55.40
2018-05-02T13:48:48.890Z,56.50
2018-05-02T13:51:16.424Z,55.50
2018-05-02T13:53:44.716Z,55.70
2018-05-02T13:56:12.241Z,55.70
2018-05-02T13:58:39.765Z,54.70
2018-05-02T14:01:07.285Z,57.40
2018-05-02T14:03:35.625Z,55.10
2018-05-02T14:06:03.844Z,55.00
2018-05-02T14:08:31.297Z,55.60
2018-05-02T14:10:59.516Z,55.70
2018-05-02T14:13:26.962Z,55.70
2018-05-02T14:15:54.449Z,56.40
2018-05-02T14:18:21.906Z,56.90
2018-05-02T14:20:49.348Z,56.30
2018-05-02T14:23:16.794Z,56.60
2018-05-02T14:25:44.249Z,57.60
2018-05-02T14:28:11.723Z,58.90
2018-05-02T14:30:39.173Z,58.40
2018-05-02T14:33:06.680Z,58.90
2018-05-02T14:35:34.110Z,58.20
2018-05-02T14:38:01.577Z,58.20
2018-05-02T14:40:29.035Z,57.30
2018-05-02T14:42:56.490Z,56.50
2018-05-02T14:45:24.016Z,57.50
2018-05-02T14:47:51.371Z,59.10
2018-05-02T14:50:18.830Z,58.80
2018-05-02T14:52:46.292Z,65.20
2018-05-02T14:55:13.746Z,65.70
2018-05-02T14:57:41.190Z,59.30
2018-05-02T15:00:08.638Z,58.40
2018-05-02T15:02:36.097Z,58.10
2018-05-02T15:05:03.584Z,58.90
2018-05-02T15:07:31.033Z,60.30
2018-05-02T15:09:58.498Z,60.00
2018-05-02T15:12:25.964Z,59.50
2018-05-02T15:14:53.409Z,60.80
2018-05-02T15:17:20.858Z,62.70
2018-05-02T15:19:48.319Z,65.90
2018-05-02T15:22:15.775Z,66.80
2018-05-02T15:24:43.247Z,65.30
2018-05-02T15:27:10.688Z,65.20
2018-05-02T15:29:38.130Z,62.80
2018-05-02T15:32:05.580Z,63.00
2018-05-02T15:34:33.030Z,66.30
2018-05-02T15:37:00.494Z,65.40
2018-05-02T15:39:27.943Z,64.00
2018-05-02T15:41:55.453Z,65.60
2018-05-02T15:44:22.940Z,65.40
2018-05-02T15:46:51.150Z,65.40
2018-05-02T15:49:18.651Z,65.40
2018-05-02T15:51:46.072Z,63.40
2018-05-02T15:54:13.614Z,64.10
2018-05-02T15:56:41.076Z,62.60
2018-05-02T15:59:08.668Z,63.10
2018-05-02T16:01:36.118Z,66.00
2018-05-02T16:04:04.386Z,67.20
2018-05-02T16:06:31.796Z,64.50
2018-05-02T16:08:59.248Z,65.40
2018-05-02T16:11:27.447Z,66.00
2018-05-02T16:13:54.930Z,65.90
2018-05-02T16:16:22.451Z,72.20
2018-05-02T16:18:49.841Z,69.80
2018-05-02T16:21:17.299Z,68.50
2018-05-02T16:23:44.762Z,67.20
2018-05-02T16:26:12.234Z,69.90
2018-05-02T16:28:39.688Z,68.10
2018-05-02T16:31:07.138Z,70.30
2018-05-02T16:33:34.598Z,70.90
2018-05-02T16:36:02.662Z,69.30
2018-05-02T16:38:30.126Z,70.80
2018-05-02T16:40:57.586Z,70.30
2018-05-02T16:43:25.043Z,70.80
2018-05-02T16:45:52.505Z,66.90
2018-05-02T16:48:19.946Z,69.70
2018-05-02T16:50:47.414Z,73.10
2018-05-02T16:53:14.853Z,78.20
2018-05-02T16:55:42.323Z,79.10
2018-05-02T16:58:09.762Z,76.20
2018-05-02T17:00:37.214Z,77.10
2018-05-02T17:03:04.670Z,80.60
2018-05-02T17:05:32.130Z,80.10
2018-05-02T17:07:59.596Z,83.00
2018-05-02T17:10:27.064Z,82.10
2018-05-02T17:12:54.524Z,86.10
2018-05-02T17:15:21.977Z,86.30
2018-05-02T17:17:49.439Z,90.80
2018-05-02T17:20:16.902Z,91.30
2018-05-02T17:22:44.367Z,99.90
2018-05-02T17:25:11.823Z,99.90
2018-05-02T17:27:39.302Z,99.90
2018-05-02T17:30:07.576Z,99.90
2018-05-02T17:32:34.979Z,99.90
2018-05-02T17:35:02.443Z,99.90
2018-05-02T17:37:29.946Z,99.90
2018-05-02T17:39:58.188Z,99.90
2018-05-02T17:42:25.625Z,99.90
2018-05-02T17:44:53.088Z,99.90
2018-05-02T17:47:20.552Z,99.90
2018-05-02T17:49:48.430Z,99.90
2018-05-02T17:52:15.870Z,99.90
2018-05-02T17:54:43.336Z,99.90
2018-05-02T17:57:10.809Z,99.90
2018-05-02T17:59:38.256Z,99.90
2018-05-02T18:02:05.724Z,99.90
2018-05-02T18:04:33.174Z,99.90
2018-05-02T18:07:00.636Z,99.90
2018-05-02T18:09:28.645Z,99.90
2018-05-02T18:11:56.103Z,99.90
2018-05-02T18:14:23.574Z,99.90
2018-05-02T18:16:51.098Z,99.90
2018-05-02T18:19:19.318Z,99.90
2018-05-02T18:21:47.660Z,99.90
2018-05-02T18:24:15.878Z,99.90
2018-05-02T18:26:43.331Z,99.90
2018-05-02T18:29:11.339Z,99.90
2018-05-02T18:31:38.789Z,99.90
2018-05-02T18:34:06.235Z,99.90
2018-05-02T18:36:33.808Z,99.90
2018-05-02T18:39:01.663Z,99.90
2018-05-02T18:41:29.115Z,99.90
2018-05-02T18:43:56.568Z,99.90
2018-05-02T18:46:24.022Z,99.90
2018-05-02T18:48:51.492Z,99.90
2018-05-02T18:51:18.951Z,99.90
2018-05-02T18:53:46.397Z,99.90
2018-05-02T18:56:13.846Z,99.90
2018-05-02T18:58:41.383Z,99.90
2018-05-02T19:01:09.056Z,99.90
2018-05-02T19:03:36.500Z,99.90
2018-05-02T19:06:03.954Z,99.90
2018-05-02T19:08:32.027Z,99.90
2018-05-02T19:10:59.487Z,99.90
2018-05-02T19:13:26.947Z,99.90
2018-05-02T19:15:54.418Z,99.90
2018-05-02T19:18:27.544Z,99.90
2018-05-02T19:20:54.996Z,99.90
2018-05-02T19:23:22.451Z,99.90
2018-05-02T19:25:55.643Z,99.90
2018-05-02T19:28:23.083Z,99.90
2018-05-02T19:30:56.364Z,99.90
2018-05-02T19:33:29.394Z,99.90
2018-05-02T19:35:58.246Z,99.90
2018-05-02T19:38:26.469Z,99.90
2018-05-02T19:41:01.126Z,99.90
2018-05-02T19:43:34.361Z,99.90
2018-05-02T19:46:02.316Z,99.90
2018-05-02T19:48:29.758Z,99.90
2018-05-02T19:51:02.851Z,99.90
2018-05-02T19:53:31.071Z,99.90
2018-05-02T19:55:59.288Z,99.90
2018-05-02T19:58:26.742Z,99.90
2018-05-02T20:01:01.405Z,99.90
2018-05-02T20:03:28.854Z,99.90
2018-05-02T20:05:56.313Z,99.90
2018-05-02T20:08:29.999Z,99.90
2018-05-02T20:11:03.027Z,99.90
2018-05-02T20:13:50.970Z,99.90
2018-05-02T20:16:19.178Z,99.90
2018-05-02T20:18:46.634Z,99.90
2018-05-02T20:21:14.094Z,99.90
2018-05-02T20:23:41.548Z,99.90
2018-05-02T20:26:09.004Z,99.90
2018-05-02T20:28:36.448Z,99.90
2018-05-02T20:31:03.912Z,99.90
2018-05-02T20:33:32.218Z,99.90
2018-05-02T20:35:59.668Z,99.90
2018-05-02T20:38:27.111Z,99.90
2018-05-02T20:40:54.563Z,99.90
2018-05-02T20:43:22.022Z,99.90
2018-05-02T20:45:49.466Z,99.90
2018-05-02T20:48:16.922Z,99.90
2018-05-02T20:50:44.373Z,99.90
2018-05-02T20:53:11.817Z,99.90
2018-05-02T20:55:40.026Z,99.90
2018-05-02T20:58:07.490Z,99.90
2018-05-02T21:00:35.614Z,99.90
2018-05-02T21:03:03.836Z,99.90
2018-05-02T21:05:31.295Z,99.90
2018-05-02T21:07:58.730Z,99.90
2018-05-02T21:10:26.187Z,99.90
2018-05-02T21:12:53.655Z,99.90
2018-05-02T21:15:21.102Z,99.90
2018-05-02T21:17:48.547Z,99.90
2018-05-02T21:20:16.768Z,99.90
2018-05-02T21:22:44.223Z,99.90
2018-05-02T21:25:11.800Z,99.90
2018-05-02T21:27:39.238Z,99.90
2018-05-02T21:30:06.691Z,99.90
2018-05-02T21:32:34.150Z,99.90
2018-05-02T21:35:02.310Z,99.90
2018-05-02T21:37:29.763Z,99.90
2018-05-02T21:39:57.506Z,99.90
2018-05-02T21:42:24.967Z,99.90
2018-05-02T21:44:52.438Z,99.90
2018-05-02T21:47:19.901Z,99.90
2018-05-02T21:49:47.360Z,99.90
2018-05-02T21:52:14.807Z,99.90
2018-05-02T21:54:42.258Z,99.90
2018-05-02T21:57:10.379Z,99.90
2018-05-02T21:59:37.830Z,99.90
2018-05-02T22:02:05.278Z,99.90
2018-05-02T22:04:32.742Z,99.90
2018-05-02T22:07:00.191Z,99.90
2018-05-02T22:09:27.652Z,99.90
2018-05-02T22:11:55.094Z,99.90
2018-05-02T22:14:22.541Z,99.90
2018-05-02T22:16:50.002Z,99.90
2018-05-02T22:19:17.451Z,99.90
2018-05-02T22:21:44.907Z,99.90
2018-05-02T22:24:12.354Z,99.90
2018-05-02T22:26:39.795Z,99.90
2018-05-02T22:29:08.021Z,99.90
2018-05-02T22:31:35.466Z,99.90
2018-05-02T22:34:03.674Z,99.90
2018-05-02T22:36:31.118Z,99.90
2018-05-02T22:38:58.571Z,99.90
2018-05-02T22:41:26.022Z,99.90
2018-05-02T22:43:53.518Z,99.90
2018-05-02T22:46:21.751Z,99.90
2018-05-02T22:48:49.190Z,99.90
2018-05-02T22:51:16.643Z,99.90
2018-05-02T22:53:44.081Z,99.90
2018-05-02T22:56:12.071Z,99.90
2018-05-02T22:58:39.531Z,99.90
2018-05-02T23:01:06.966Z,99.90
2018-05-02T23:03:35.286Z,99.90
2018-05-02T23:06:02.731Z,99.90
2018-05-02T23:08:30.183Z,99.90
2018-05-02T23:10:58.041Z,99.90
2018-05-02T23:13:32.489Z,99.90
2018-05-02T23:15:59.931Z,99.90
2018-05-02T23:18:27.375Z,99.90
2018-05-02T23:20:54.830Z,99.90
2018-05-02T23:23:22.274Z,99.90
2018-05-02T23:25:50.469Z,99.90
2018-05-02T23:28:17.905Z,99.90
2018-05-02T23:30:45.346Z,99.90
2018-05-02T23:33:13.565Z,99.90
2018-05-02T23:35:41.006Z,99.90
2018-05-02T23:38:08.725Z,99.90
2018-05-02T23:40:36.166Z,99.90
2018-05-02T23:43:03.614Z,99.90
2018-05-02T23:45:31.061Z,99.90
2018-05-02T23:47:58.502Z,99.90
2018-05-02T23:50:25.954Z,99.90
2018-05-02T23:52:53.433Z,99.90
2018-05-02T23:55:20.890Z,99.90
2018-05-02T23:57:48.326Z,99.90
